createdAt,value
2023-03-21T00:01:12.305Z,23.40
2023-03-21T00:03:48.455Z,23.50
2023-03-21T00:06:24.567Z,23.50
2023-03-21T00:09:00.038Z,23.20
2023-03-21T00:11:35.169Z,23.40
2023-03-21T00:14:15.982Z,23.30
2023-03-21T00:16:54.673Z,23.30
2023-03-21T00:19:30.833Z,23.40
2023-03-21T00:22:08.542Z,23.40
2023-03-21T00:24:44.597Z,23.30
2023-03-21T00:27:44.869Z,23.00
2023-03-21T00:30:19.140Z,23.30
2023-03-21T00:33:03.572Z,23.40
2023-03-21T00:35:58.315Z,23.40
2023-03-21T00:38:34.640Z,23.60
2023-03-21T00:41:21.336Z,23.70
2023-03-21T00:44:02.452Z,23.70
2023-03-21T00:46:47.194Z,23.70
2023-03-21T00:49:29.442Z,23.80
2023-03-21T00:52:15.096Z,23.70
2023-03-21T00:54:51.316Z,23.80
2023-03-21T00:57:38.037Z,23.90
2023-03-21T01:00:17.578Z,24.00
2023-03-21T01:03:08.598Z,24.10
2023-03-21T01:06:10.643Z,24.00
2023-03-21T01:08:54.226Z,24.10
2023-03-21T01:11:31.576Z,24.20
2023-03-21T01:14:21.413Z,23.90
2023-03-21T01:16:58.316Z,24.00
2023-03-21T01:19:50.133Z,24.20
2023-03-21T01:22:29.196Z,24.20
2023-03-21T01:25:19.524Z,24.20
2023-03-21T01:27:57.534Z,24.20
2023-03-21T01:30:36.937Z,24.20
2023-03-21T01:33:17.306Z,24.20
2023-03-21T01:36:00.325Z,24.10
2023-03-21T01:38:43.553Z,24.20
2023-03-21T01:41:33.606Z,24.10
2023-03-21T01:44:24.524Z,23.90
2023-03-21T01:47:11.183Z,24.00
2023-03-21T01:50:08.310Z,24.00
2023-03-21T01:52:54.668Z,23.90
2023-03-21T01:55:39.322Z,23.90
2023-03-21T01:58:33.887Z,23.80
2023-03-21T02:01:17.650Z,23.90
2023-03-21T02:04:00.167Z,23.90
2023-03-21T02:06:41.662Z,23.90
2023-03-21T02:09:29.575Z,24.00
2023-03-21T02:12:06.994Z,24.10
2023-03-21T02:14:43.691Z,24.00
2023-03-21T02:17:33.470Z,24.00
2023-03-21T02:20:53.970Z,24.00
2023-03-21T02:24:02.665Z,24.00
2023-03-21T02:27:04.885Z,23.80
2023-03-21T02:30:26.535Z,24.00
2023-03-21T02:33:30.864Z,24.20
2023-03-21T02:36:27.489Z,24.40
2023-03-21T02:39:13.274Z,24.40
2023-03-21T02:41:55.081Z,24.40
2023-03-21T02:44:46.979Z,24.40
2023-03-21T02:47:30.338Z,24.50
2023-03-21T02:50:14.281Z,24.50
2023-03-21T02:52:52.121Z,24.80
2023-03-21T02:55:31.486Z,24.40
2023-03-21T02:58:14.564Z,24.50
2023-03-21T03:00:57.076Z,24.60
2023-03-21T03:03:41.261Z,24.30
2023-03-21T03:06:28.598Z,24.50
2023-03-21T03:09:25.024Z,24.40
2023-03-21T03:12:12.482Z,24.30
2023-03-21T03:15:03.458Z,24.20
2023-03-21T03:17:51.907Z,24.40
2023-03-21T03:20:38.243Z,24.40
2023-03-21T03:23:23.871Z,24.20
2023-03-21T03:26:04.659Z,24.20
2023-03-21T03:28:46.925Z,24.30
2023-03-21T03:31:30.537Z,24.30
2023-03-21T03:34:10.876Z,24.40
2023-03-21T03:36:53.260Z,24.40
2023-03-21T03:39:34.985Z,24.40
2023-03-21T03:42:27.106Z,24.40
2023-03-21T03:45:34.253Z,24.40
2023-03-21T03:48:19.181Z,24.30
2023-03-21T03:51:00.282Z,24.40
2023-03-21T03:54:00.444Z,24.50
2023-03-21T03:56:38.189Z,24.30
2023-03-21T03:59:13.776Z,24.30
2023-03-21T04:02:06.910Z,24.30
2023-03-21T04:04:43.465Z,24.40
2023-03-21T04:07:19.658Z,24.40
2023-03-21T04:09:56.395Z,24.50
2023-03-21T04:12:32.507Z,24.40
2023-03-21T04:15:33.907Z,24.50
2023-03-21T04:18:19.501Z,24.40
2023-03-21T04:20:55.012Z,24.50
2023-03-21T04:23:31.065Z,24.40
2023-03-21T04:26:07.402Z,24.40
2023-03-21T04:28:47.523Z,24.30
2023-03-21T04:31:43.332Z,24.30
2023-03-21T04:34:25.569Z,24.40
2023-03-21T04:37:12.655Z,24.20
2023-03-21T04:39:49.588Z,24.10
2023-03-21T04:42:24.770Z,24.20
2023-03-21T04:45:00.351Z,24.10
2023-03-21T04:47:36.463Z,24.10
2023-03-21T04:50:17.541Z,24.20
2023-03-21T04:52:52.788Z,24.00
2023-03-21T04:55:29.729Z,24.00
2023-03-21T04:58:05.575Z,24.00
2023-03-21T05:00:41.897Z,24.10
2023-03-21T05:03:21.646Z,24.10
2023-03-21T05:05:59.062Z,23.90
2023-03-21T05:08:35.138Z,23.90
2023-03-21T05:11:11.470Z,23.40
2023-03-21T05:13:47.168Z,23.60
2023-03-21T05:16:22.654Z,23.60
2023-03-21T05:18:59.041Z,23.80
2023-03-21T05:21:43.145Z,23.90
2023-03-21T05:24:26.616Z,23.90
2023-03-21T05:27:05.343Z,24.00
2023-03-21T05:29:48.858Z,24.00
2023-03-21T05:32:24.425Z,24.00
2023-03-21T05:34:59.834Z,24.00
2023-03-21T05:37:37.452Z,23.90
2023-03-21T05:40:16.454Z,23.90
2023-03-21T05:42:54.604Z,24.00
2023-03-21T05:45:31.399Z,24.00
2023-03-21T05:48:08.461Z,24.00
2023-03-21T05:50:58.855Z,23.90
2023-03-21T05:53:36.281Z,23.90
2023-03-21T05:56:12.635Z,23.80
2023-03-21T05:58:55.134Z,23.80
2023-03-21T06:01:32.603Z,24.00
2023-03-21T06:04:22.034Z,23.90
2023-03-21T06:06:57.423Z,23.70
2023-03-21T06:09:35.367Z,23.70
2023-03-21T06:12:12.770Z,23.80
2023-03-21T06:14:57.306Z,23.70
2023-03-21T06:17:42.082Z,23.70
2023-03-21T06:20:20.316Z,23.70
2023-03-21T06:23:00.897Z,23.70
2023-03-21T06:25:39.135Z,23.70
2023-03-21T06:28:15.284Z,23.60
2023-03-21T06:30:52.678Z,23.50
2023-03-21T06:33:32.384Z,23.50
2023-03-21T06:36:08.020Z,23.50
2023-03-21T06:38:43.358Z,23.60
2023-03-21T06:41:22.559Z,23.70
2023-03-21T06:44:08.960Z,23.40
2023-03-21T06:46:53.900Z,23.40
2023-03-21T06:49:30.184Z,23.40
2023-03-21T06:52:10.275Z,23.30
2023-03-21T06:54:46.783Z,23.30
2023-03-21T06:57:25.952Z,23.10
2023-03-21T07:00:01.175Z,23.10
2023-03-21T07:02:38.555Z,23.00
2023-03-21T07:05:19.826Z,23.20
2023-03-21T07:07:55.520Z,23.30
2023-03-21T07:10:34.286Z,23.30
2023-03-21T07:13:16.046Z,23.30
2023-03-21T07:16:03.481Z,23.30
2023-03-21T07:18:39.913Z,23.20
2023-03-21T07:21:15.258Z,23.20
2023-03-21T07:23:52.468Z,23.20
2023-03-21T07:26:28.216Z,23.20
2023-03-21T07:29:07.586Z,23.10
2023-03-21T07:31:43.433Z,23.10
2023-03-21T07:34:20.616Z,23.10
2023-03-21T07:36:56.444Z,23.20
2023-03-21T07:39:34.463Z,23.20
2023-03-21T07:44:54.406Z,23.20
2023-03-21T07:47:31.212Z,22.90
2023-03-21T07:50:07.753Z,23.00
2023-03-21T07:52:43.281Z,23.10
2023-03-21T07:55:19.535Z,23.10
2023-03-21T07:57:56.745Z,23.10
2023-03-21T08:00:34.531Z,23.10
2023-03-21T08:03:10.392Z,23.20
2023-03-21T08:05:47.267Z,22.90
2023-03-21T08:08:25.912Z,23.10
2023-03-21T08:11:01.735Z,23.00
2023-03-21T08:13:37.069Z,23.20
2023-03-21T08:16:15.873Z,23.10
2023-03-21T08:18:51.723Z,23.20
2023-03-21T08:21:27.875Z,23.20
2023-03-21T08:24:03.296Z,23.20
2023-03-21T08:26:39.862Z,23.20
2023-03-21T08:29:15.635Z,23.10
2023-03-21T08:31:53.134Z,22.90
2023-03-21T08:34:28.287Z,22.80
2023-03-21T08:37:05.927Z,22.90
2023-03-21T08:39:41.749Z,22.90
2023-03-21T08:42:17.359Z,22.80
2023-03-21T08:44:52.560Z,22.90
2023-03-21T08:47:30.049Z,23.10
2023-03-21T08:50:08.275Z,23.20
2023-03-21T08:52:44.361Z,23.10
2023-03-21T08:55:20.638Z,23.10
2023-03-21T08:57:56.572Z,23.20
2023-03-21T09:00:32.621Z,23.20
2023-03-21T09:03:11.666Z,23.30
2023-03-21T09:05:47.438Z,23.20
2023-03-21T09:08:24.968Z,23.10
2023-03-21T09:11:01.277Z,23.10
2023-03-21T09:13:36.656Z,23.40
2023-03-21T09:16:12.626Z,23.30
2023-03-21T09:18:52.153Z,23.30
2023-03-21T09:21:29.024Z,23.30
2023-03-21T09:24:04.716Z,23.30
2023-03-21T09:26:39.851Z,23.30
2023-03-21T09:29:15.723Z,23.10
2023-03-21T09:31:51.500Z,23.10
2023-03-21T09:34:28.930Z,23.20
2023-03-21T09:37:04.229Z,23.20
2023-03-21T09:39:40.831Z,23.20
2023-03-21T09:42:34.532Z,23.40
2023-03-21T09:45:17.781Z,23.30
2023-03-21T09:47:55.154Z,23.10
2023-03-21T09:50:35.468Z,23.00
2023-03-21T09:53:18.501Z,23.00
2023-03-21T09:55:56.026Z,23.00
2023-03-21T09:58:34.840Z,22.90
2023-03-21T10:01:23.724Z,23.00
2023-03-21T10:04:01.869Z,23.10
2023-03-21T10:06:42.849Z,23.10
2023-03-21T10:09:24.779Z,23.10
2023-03-21T10:12:05.291Z,23.00
2023-03-21T10:14:44.080Z,23.00
2023-03-21T10:17:31.318Z,22.80
2023-03-21T10:20:17.983Z,22.90
2023-03-21T10:22:57.648Z,22.80
2023-03-21T10:25:37.211Z,22.90
2023-03-21T10:28:18.876Z,22.90
2023-03-21T10:30:57.726Z,23.00
2023-03-21T10:33:38.186Z,23.10
2023-03-21T10:36:16.217Z,23.00
2023-03-21T10:38:57.114Z,23.00
2023-03-21T10:41:33.622Z,23.00
2023-03-21T10:44:16.176Z,22.90
2023-03-21T10:46:58.642Z,22.90
2023-03-21T10:49:56.365Z,22.90
2023-03-21T10:52:34.852Z,22.90
2023-03-21T10:55:23.043Z,22.90
2023-03-21T10:58:10.098Z,23.00
2023-03-21T11:00:47.609Z,23.00
2023-03-21T11:03:31.581Z,23.00
2023-03-21T11:06:11.109Z,23.00
2023-03-21T11:08:50.670Z,23.10
2023-03-21T11:11:31.642Z,23.20
2023-03-21T11:14:09.458Z,23.20
2023-03-21T11:16:46.883Z,23.20
2023-03-21T11:19:26.392Z,23.10
2023-03-21T11:22:03.815Z,23.20
2023-03-21T11:24:41.371Z,23.10
2023-03-21T11:27:18.855Z,23.20
2023-03-21T11:29:56.956Z,23.20
2023-03-21T11:32:37.872Z,23.10
2023-03-21T11:35:22.061Z,23.20
2023-03-21T11:37:59.088Z,23.20
2023-03-21T11:40:42.556Z,23.20
2023-03-21T11:43:35.720Z,23.20
2023-03-21T11:46:14.192Z,23.20
2023-03-21T11:48:54.433Z,23.00
2023-03-21T11:51:38.535Z,23.00
2023-03-21T11:54:31.829Z,22.90
2023-03-21T11:57:28.402Z,23.00
2023-03-21T12:00:22.438Z,22.90
2023-03-21T12:03:41.468Z,23.00
2023-03-21T12:06:32.903Z,23.00
2023-03-21T12:09:27.972Z,22.90
2023-03-21T12:12:14.040Z,23.00
2023-03-21T12:14:59.604Z,22.90
2023-03-21T12:17:46.426Z,23.00
2023-03-21T12:20:40.448Z,22.90
2023-03-21T12:23:48.866Z,22.90
2023-03-21T12:26:31.470Z,22.90
2023-03-21T12:29:21.244Z,22.80
2023-03-21T12:32:05.923Z,22.80
2023-03-21T12:35:13.786Z,22.90
2023-03-21T12:37:58.442Z,22.90
2023-03-21T12:40:49.106Z,22.90
2023-03-21T12:43:45.626Z,22.90
2023-03-21T12:46:28.057Z,22.90
2023-03-21T12:49:08.027Z,22.90
2023-03-21T12:51:48.956Z,22.90
2023-03-21T12:54:33.009Z,22.60
2023-03-21T12:57:13.244Z,22.70
2023-03-21T12:59:54.066Z,22.70
2023-03-21T13:02:34.637Z,22.70
2023-03-21T13:05:19.495Z,22.80
2023-03-21T13:08:02.509Z,22.70
2023-03-21T13:10:39.993Z,22.70
2023-03-21T13:13:24.155Z,22.60
2023-03-21T13:16:23.102Z,22.60
2023-03-21T13:19:07.273Z,22.50
2023-03-21T13:21:54.633Z,22.50
2023-03-21T13:24:38.114Z,22.60
2023-03-21T13:27:23.213Z,22.60
2023-03-21T13:30:02.681Z,22.60
2023-03-21T13:32:39.879Z,22.60
2023-03-21T13:35:22.593Z,22.60
2023-03-21T13:38:01.581Z,22.70
2023-03-21T13:40:46.080Z,22.60
2023-03-21T13:43:48.076Z,22.60
2023-03-21T13:46:53.858Z,22.60
2023-03-21T13:49:36.186Z,22.60
2023-03-21T13:52:30.985Z,22.60
2023-03-21T13:55:21.115Z,22.60
2023-03-21T13:57:59.221Z,22.70
2023-03-21T14:00:36.852Z,22.60
2023-03-21T14:03:14.519Z,22.60
2023-03-21T14:05:55.822Z,22.60
2023-03-21T14:08:37.457Z,22.60
2023-03-21T14:11:18.399Z,22.60
2023-03-21T14:13:57.981Z,22.50
2023-03-21T14:16:35.176Z,22.60
2023-03-21T14:19:11.832Z,22.60
2023-03-21T14:21:55.664Z,22.50
2023-03-21T14:24:30.842Z,22.60
2023-03-21T14:27:07.731Z,22.60
2023-03-21T14:29:45.367Z,22.50
2023-03-21T14:32:27.648Z,22.40
2023-03-21T14:35:05.938Z,22.40
2023-03-21T14:37:52.056Z,22.40
2023-03-21T14:40:29.592Z,22.50
2023-03-21T14:43:10.557Z,22.50
2023-03-21T14:45:51.484Z,22.50
2023-03-21T14:48:33.174Z,22.50
2023-03-21T14:51:11.951Z,22.50
2023-03-21T14:53:49.295Z,22.50
2023-03-21T14:56:28.697Z,22.50
2023-03-21T14:59:05.241Z,22.50
2023-03-21T15:01:44.002Z,22.50
2023-03-21T15:04:21.309Z,22.50
2023-03-21T15:07:00.690Z,22.50
2023-03-21T15:09:37.566Z,22.50
2023-03-21T15:12:15.709Z,22.60
2023-03-21T15:14:51.910Z,22.60
2023-03-21T15:17:30.919Z,22.60
2023-03-21T15:20:07.466Z,22.50
2023-03-21T15:22:45.718Z,22.40
2023-03-21T15:25:26.235Z,22.50
2023-03-21T15:28:01.725Z,22.40
2023-03-21T15:30:39.019Z,22.50
2023-03-21T15:33:17.276Z,22.50
2023-03-21T15:35:57.642Z,22.60
2023-03-21T15:38:38.179Z,22.30
2023-03-21T15:41:33.068Z,22.40
2023-03-21T15:44:17.533Z,22.40
2023-03-21T15:46:53.964Z,22.50
2023-03-21T15:49:35.021Z,22.50
2023-03-21T15:52:16.426Z,22.50
2023-03-21T15:54:57.407Z,22.50
2023-03-21T15:57:34.650Z,22.50
2023-03-21T16:00:26.317Z,22.50
2023-03-21T16:03:08.058Z,22.40
2023-03-21T16:05:45.321Z,22.20
2023-03-21T16:08:26.167Z,22.20
2023-03-21T16:11:12.776Z,22.20
2023-03-21T16:13:48.565Z,22.30
2023-03-21T16:16:26.266Z,22.30
2023-03-21T16:19:02.920Z,22.20
2023-03-21T16:21:41.386Z,22.20
2023-03-21T16:24:18.273Z,22.20
2023-03-21T16:26:55.720Z,22.20
2023-03-21T16:29:31.378Z,22.10
2023-03-21T16:32:07.828Z,22.10
2023-03-21T16:34:43.817Z,22.10
2023-03-21T16:37:21.491Z,22.20
2023-03-21T16:39:58.544Z,22.10
2023-03-21T16:42:34.323Z,22.10
2023-03-21T16:45:10.299Z,22.10
2023-03-21T16:47:46.434Z,22.10
2023-03-21T16:50:30.643Z,22.00
2023-03-21T16:53:08.408Z,22.00
2023-03-21T16:55:45.012Z,22.10
2023-03-21T16:58:21.386Z,22.10
2023-03-21T17:00:58.177Z,22.20
2023-03-21T17:03:33.982Z,22.30
2023-03-21T17:06:10.211Z,22.20
2023-03-21T17:08:47.775Z,22.20
2023-03-21T17:11:25.357Z,22.10
2023-03-21T17:14:00.960Z,22.10
2023-03-21T17:16:36.724Z,22.10
2023-03-21T17:19:20.451Z,22.10
2023-03-21T17:21:56.992Z,22.10
2023-03-21T17:24:34.459Z,22.10
2023-03-21T17:27:13.233Z,22.20
2023-03-21T17:29:48.686Z,22.10
2023-03-21T17:32:24.318Z,22.10
2023-03-21T17:34:59.620Z,22.10
2023-03-21T17:37:35.941Z,22.10
2023-03-21T17:40:17.040Z,21.90
2023-03-21T17:42:53.268Z,22.00
2023-03-21T17:45:28.853Z,21.90
2023-03-21T17:48:04.608Z,22.00
2023-03-21T17:50:41.070Z,21.90
2023-03-21T17:53:16.850Z,22.00
2023-03-21T17:55:54.694Z,22.00
2023-03-21T17:58:30.830Z,21.90
2023-03-21T18:01:06.352Z,21.90
2023-03-21T18:03:42.154Z,22.00
2023-03-21T18:06:21.454Z,22.00
2023-03-21T18:09:00.985Z,22.10
2023-03-21T18:11:38.516Z,21.90
2023-03-21T18:14:18.066Z,21.80
2023-03-21T18:16:55.834Z,21.80
2023-03-21T18:19:31.483Z,21.70
2023-03-21T18:22:06.789Z,21.70
2023-03-21T18:24:42.174Z,21.70
2023-03-21T18:27:19.461Z,21.70
2023-03-21T18:32:51.865Z,21.80
2023-03-21T18:35:27.637Z,21.70
2023-03-21T18:38:04.448Z,21.80
2023-03-21T18:40:40.408Z,21.80
2023-03-21T18:43:59.330Z,21.90
2023-03-21T18:46:14.445Z,21.90
2023-03-21T18:48:51.133Z,21.90
2023-03-21T18:51:27.411Z,21.90
2023-03-21T18:54:03.414Z,22.00
2023-03-21T18:59:37.915Z,21.90
2023-03-21T19:02:17.021Z,21.90
2023-03-21T19:04:52.766Z,21.90
2023-03-21T19:07:28.932Z,21.90
2023-03-21T19:10:17.464Z,21.90
2023-03-21T19:12:54.826Z,22.00
2023-03-21T19:15:32.379Z,22.00
2023-03-21T19:18:37.585Z,22.00
2023-03-21T19:21:04.565Z,21.90
2023-03-21T19:24:16.293Z,22.00
2023-03-21T19:26:35.497Z,22.00
2023-03-21T19:29:10.810Z,22.00
2023-03-21T19:31:48.875Z,22.00
2023-03-21T19:34:25.275Z,22.00
2023-03-21T19:37:00.771Z,22.00
2023-03-21T19:39:38.084Z,22.00
2023-03-21T19:42:17.144Z,22.00
2023-03-21T19:44:53.381Z,21.90
2023-03-21T19:47:31.282Z,21.80
2023-03-21T19:53:02.589Z,21.80
2023-03-21T19:55:38.293Z,21.90
2023-03-21T19:58:14.223Z,21.80
2023-03-21T20:00:49.809Z,21.90
2023-03-21T20:03:27.947Z,22.00
2023-03-21T20:06:11.520Z,22.00
2023-03-21T20:11:42.436Z,22.00
2023-03-21T20:14:17.897Z,22.00
2023-03-21T20:16:55.329Z,21.80
2023-03-21T20:19:33.632Z,21.90
2023-03-21T20:22:21.757Z,21.90
2023-03-21T20:25:06.734Z,21.90
2023-03-21T20:27:43.675Z,22.00
2023-03-21T20:30:21.166Z,21.90
2023-03-21T20:32:56.518Z,22.00
2023-03-21T20:36:22.999Z,22.10
2023-03-21T20:38:32.656Z,22.10
2023-03-21T20:41:09.182Z,22.10
2023-03-21T20:44:34.756Z,22.20
2023-03-21T20:46:40.717Z,22.10
2023-03-21T20:49:17.097Z,22.20
2023-03-21T20:54:51.782Z,22.20
2023-03-21T20:57:28.740Z,22.20
2023-03-21T21:00:05.460Z,22.30
2023-03-21T21:02:40.942Z,22.20
2023-03-21T21:05:26.004Z,22.30
2023-03-21T21:08:07.310Z,22.30
2023-03-21T21:11:14.944Z,22.40
2023-03-21T21:13:38.901Z,22.60
2023-03-21T21:16:14.592Z,22.70
2023-03-21T21:18:50.670Z,22.70
2023-03-21T21:21:27.017Z,22.60
2023-03-21T21:24:04.666Z,22.70
2023-03-21T21:26:41.929Z,22.80
2023-03-21T21:29:18.594Z,22.90
2023-03-21T21:31:54.877Z,23.00
2023-03-21T21:34:30.346Z,23.20
2023-03-21T21:37:06.092Z,23.20
2023-03-21T21:39:43.913Z,23.10
2023-03-21T21:42:19.531Z,22.90
2023-03-21T21:44:54.870Z,23.20
2023-03-21T21:47:30.596Z,23.40
2023-03-21T21:50:09.628Z,23.40
2023-03-21T21:52:54.442Z,23.30
2023-03-21T21:55:32.430Z,23.30
2023-03-21T21:58:10.114Z,23.50
2023-03-21T22:00:46.783Z,23.80
2023-03-21T22:03:23.661Z,23.80
2023-03-21T22:06:06.464Z,23.90
2023-03-21T22:08:48.815Z,24.10
2023-03-21T22:11:26.516Z,24.30
2023-03-21T22:14:02.068Z,24.50
2023-03-21T22:16:37.396Z,24.60
2023-03-21T22:19:12.692Z,24.70
2023-03-21T22:21:48.472Z,24.80
2023-03-21T22:24:24.523Z,24.70
2023-03-21T22:27:01.907Z,24.70
2023-03-21T22:29:37.211Z,24.60
2023-03-21T22:32:13.356Z,24.30
2023-03-21T22:34:48.988Z,24.20
2023-03-21T22:37:24.379Z,24.20
2023-03-21T22:40:00.331Z,24.30
2023-03-21T22:42:38.126Z,24.40
2023-03-21T22:45:15.346Z,24.30
2023-03-21T22:47:50.852Z,24.30
2023-03-21T22:50:26.126Z,24.40
2023-03-21T22:53:01.871Z,24.30
2023-03-21T22:55:38.241Z,24.40
2023-03-21T22:58:15.427Z,24.40
2023-03-21T23:00:51.000Z,24.40
2023-03-21T23:03:27.012Z,24.40
2023-03-21T23:06:05.526Z,24.50
2023-03-21T23:08:40.977Z,24.50
2023-03-21T23:11:16.900Z,24.50
2023-03-21T23:14:06.795Z,24.60
2023-03-21T23:16:43.273Z,24.60
2023-03-21T23:19:18.678Z,24.50
2023-03-21T23:21:53.764Z,24.30
2023-03-21T23:24:29.425Z,24.40
2023-03-21T23:27:05.657Z,24.50
2023-03-21T23:29:42.986Z,24.80
2023-03-21T23:32:18.063Z,25.00
2023-03-21T23:34:53.728Z,25.10
2023-03-21T23:37:31.771Z,25.20
2023-03-21T23:40:08.081Z,25.20
2023-03-21T23:42:43.848Z,25.20
2023-03-21T23:45:21.666Z,25.20
2023-03-21T23:47:57.233Z,25.20
2023-03-21T23:50:32.557Z,25.20
2023-03-21T23:53:07.892Z,25.20
2023-03-21T23:55:46.294Z,25.20
2023-03-21T23:58:22.501Z,25.10
